Time;durP1;ratioP1;P1;durP2;ratioP2;P2;SDS_P1;SDS_P2;PMS_P1;PMS_P2;Temp;Humidity;BMP_temperature;BMP_pressure;BME280_temperature;BME280_humidity;BME280_pressure;Samples;Min_cycle;Max_cycle;Signal;HPM_P1;HPM_P2
2022/05/09 00:00:32;;;;;;;10.57;9.37;;;;;;;8.80;50.96;102173.30;1688873;84;20933;-77
2022/05/09 00:02:59;;;;;;;10.00;8.70;;;;;;;8.78;51.10;102169.41;1671667;83;21045;-77
2022/05/09 00:05:27;;;;;;;17.10;9.53;;;;;;;8.75;51.19;102167.20;1659541;84;21649;-77
2022/05/09 00:07:54;;;;;;;12.43;8.80;;;;;;;8.71;51.32;102172.73;1634291;86;21471;-78
2022/05/09 00:10:24;;;;;;;11.75;8.60;;;;;;;8.69;51.42;102174.41;1659249;84;21105;-78
2022/05/09 00:12:51;;;;;;;11.78;8.98;;;;;;;8.65;51.51;102171.34;1653088;85;21423;-77
2022/05/09 00:15:19;;;;;;;13.83;8.75;;;;;;;8.63;51.63;102175.59;1655152;83;21444;-77
2022/05/09 00:17:45;;;;;;;9.98;7.85;;;;;;;8.60;51.74;102178.13;1654273;85;21348;-77
2022/05/09 00:20:13;;;;;;;10.65;8.30;;;;;;;8.56;51.87;102175.91;1654626;86;20930;-78
2022/05/09 00:22:46;;;;;;;12.65;9.15;;;;;;;8.54;51.92;102178.88;1656905;84;20975;-77
2022/05/09 00:25:12;;;;;;;11.30;7.90;;;;;;;8.50;52.02;102177.52;1654252;84;21432;-77
2022/05/09 00:27:38;;;;;;;10.00;8.68;;;;;;;8.44;52.09;102173.53;1683216;84;20902;-78
2022/05/09 00:30:06;;;;;;;12.30;8.50;;;;;;;8.42;52.26;102177.80;1661866;85;21420;-78
2022/05/09 00:32:32;;;;;;;13.00;8.00;;;;;;;8.39;52.35;102180.31;1654420;85;21468;-77
2022/05/09 00:34:57;;;;;;;10.73;8.03;;;;;;;8.36;52.45;102178.97;1654911;86;20946;-77
2022/05/09 00:37:23;;;;;;;9.90;8.47;;;;;;;8.36;52.59;102184.12;1669376;85;21602;-79
2022/05/09 00:39:50;;;;;;;11.20;7.77;;;;;;;8.35;52.66;102185.84;1675895;83;20937;-78
2022/05/09 00:42:17;;;;;;;10.98;8.35;;;;;;;8.35;52.73;102194.86;1665157;85;21183;-78
2022/05/09 00:44:43;;;;;;;10.08;7.35;;;;;;;8.32;52.81;102193.48;1670469;83;28010;-77
2022/05/09 00:47:09;;;;;;;12.10;8.10;;;;;;;8.30;52.95;102195.19;1682094;85;20942;-78
2022/05/09 00:49:46;;;;;;;8.98;6.53;;;;;;;8.29;53.00;102199.90;1672059;84;21025;-78
2022/05/09 00:52:40;;;;;;;10.13;7.10;;;;;;;8.27;53.03;102197.71;1651865;85;20986;-77
2022/05/09 00:55:20;;;;;;;11.78;7.62;;;;;;;8.25;53.15;102207.98;1652688;86;21580;-78
2022/05/09 00:58:00;;;;;;;13.00;7.33;;;;;;;8.21;53.30;102202.75;1653074;85;21101;-77
2022/05/09 01:00:27;;;;;;;12.47;7.25;;;;;;;8.21;53.41;102208.77;1658748;85;21086;-77
2022/05/09 01:03:02;;;;;;;10.35;7.20;;;;;;;8.23;53.48;102209.66;1652597;86;21074;-77
2022/05/09 01:05:30;;;;;;;12.98;8.13;;;;;;;8.23;53.60;102204.94;1652791;83;21041;-77
2022/05/09 01:07:58;;;;;;;14.53;8.25;;;;;;;8.20;53.64;102210.89;1653104;85;21062;-77
2022/05/09 01:10:30;;;;;;;13.65;8.78;;;;;;;8.18;53.71;102210.00;1632292;86;21130;-77
2022/05/09 01:12:56;;;;;;;12.43;7.97;;;;;;;8.14;53.81;102209.48;1654750;85;21094;-78
2022/05/09 01:15:22;;;;;;;14.47;7.25;;;;;;;8.12;53.85;102206.02;1653011;85;21002;-77
2022/05/09 01:17:50;;;;;;;14.45;8.18;;;;;;;8.10;54.01;102207.69;1680483;83;21058;-78
2022/05/09 01:20:18;;;;;;;9.50;7.28;;;;;;;8.07;54.06;102202.48;1670755;83;21042;-78
2022/05/09 01:22:45;;;;;;;9.27;7.10;;;;;;;8.04;54.10;102206.70;1669592;84;20979;-77
2022/05/09 01:25:16;;;;;;;10.48;7.03;;;;;;;8.00;54.25;102198.04;1669707;84;21076;-76
2022/05/09 01:27:45;;;;;;;11.60;7.22;;;;;;;7.96;54.28;102200.97;1681907;84;21103;-77
2022/05/09 01:30:24;;;;;;;10.63;6.22;;;;;;;7.94;54.39;102203.06;1681398;84;21103;-78
2022/05/09 01:33:30;;;;;;;10.70;6.78;;;;;;;7.94;54.43;102203.06;1662681;83;21119;-77
2022/05/09 01:36:07;;;;;;;10.48;7.00;;;;;;;7.91;54.52;102197.44;1664898;86;21064;-77
2022/05/09 01:38:57;;;;;;;11.70;7.03;;;;;;;7.83;54.62;102202.84;1663766;85;21080;-78
2022/05/09 01:41:26;;;;;;;13.15;6.53;;;;;;;7.79;54.74;102207.94;1682749;83;20991;-77
2022/05/09 01:43:55;;;;;;;11.60;7.08;;;;;;;7.75;54.77;102206.13;1665941;84;20996;-77
2022/05/09 01:46:26;;;;;;;11.38;6.95;;;;;;;7.72;54.91;102203.07;1673096;84;21123;-77
2022/05/09 01:51:43;;;;;;;10.15;6.65;;;;;;;7.68;54.99;102214.14;1677207;84;24678;-78
2022/05/09 01:54:11;;;;;;;9.68;6.20;;;;;;;7.63;55.06;102207.61;1694801;83;20961;-77
2022/05/09 01:56:40;;;;;;;9.55;5.62;;;;;;;7.63;55.12;102211.47;1682770;83;20925;-78
2022/05/09 01:59:09;;;;;;;7.47;5.67;;;;;;;7.61;55.13;102210.56;1674476;83;20912;-78
2022/05/09 02:01:41;;;;;;;10.15;5.62;;;;;;;7.60;55.19;102211.82;1674842;84;20944;-77
2022/05/09 02:04:07;;;;;;;9.15;5.78;;;;;;;7.58;55.26;102211.78;1685411;84;20936;-77
2022/05/09 02:06:40;;;;;;;8.33;5.72;;;;;;;7.53;55.27;102216.37;1679606;83;20944;-77
2022/05/09 02:09:07;;;;;;;6.37;5.47;;;;;;;7.47;55.33;102205.95;1666884;85;20960;-77
2022/05/09 02:11:34;;;;;;;8.38;5.20;;;;;;;7.38;55.25;102213.04;1689119;83;20944;-77
2022/05/09 02:14:01;;;;;;;7.12;5.35;;;;;;;7.30;55.30;102210.71;1666702;85;20932;-77
2022/05/09 02:16:27;;;;;;;8.88;5.58;;;;;;;7.22;55.42;102214.42;1680312;84;20945;-76
2022/05/09 02:18:54;;;;;;;9.23;5.42;;;;;;;7.21;55.55;102215.26;1688951;83;21291;-78
2022/05/09 02:21:20;;;;;;;7.30;5.25;;;;;;;7.17;55.60;102211.29;1666819;84;20936;-77
2022/05/09 02:23:46;;;;;;;9.00;5.37;;;;;;;7.13;55.61;102216.78;1663700;84;20982;-76
2022/05/09 02:26:14;;;;;;;8.43;5.50;;;;;;;7.09;55.72;102223.09;1653975;83;21405;-78
2022/05/09 02:28:41;;;;;;;10.47;5.53;;;;;;;7.06;55.88;102222.61;1671066;85;20929;-78
2022/05/09 02:31:07;;;;;;;6.62;4.65;;;;;;;7.06;55.87;102225.18;1675094;85;20941;-76
2022/05/09 02:33:33;;;;;;;7.47;5.25;;;;;;;6.90;55.68;102225.22;1675145;84;20907;-76
2022/05/09 02:36:00;;;;;;;6.58;4.70;;;;;;;6.90;55.68;102225.22;1667740;85;21063;-77
2022/05/09 02:38:28;;;;;;;8.73;4.87;;;;;;;6.84;55.97;102230.20;1663926;85;20946;-77
2022/05/09 02:40:55;;;;;;;7.30;4.92;;;;;;;6.77;56.03;102230.01;1691249;84;21570;-77
2022/05/09 02:43:22;;;;;;;;;;;;;;;6.74;56.14;102228.68;1682547;84;21050;-76
2022/05/09 02:45:49;;;;;;;6.83;4.58;;;;;;;6.73;56.79;102236.80;1652185;85;20185;-76
2022/05/09 02:48:16;;;;;;;6.60;4.85;;;;;;;6.72;56.31;102242.78;1655721;83;21086;-77
2022/05/09 02:50:42;;;;;;;7.05;4.55;;;;;;;6.68;56.32;102236.23;1667604;85;21042;-77
2022/05/09 02:53:10;;;;;;;5.67;4.00;;;;;;;6.67;56.44;102232.79;1650188;85;20991;-76
2022/05/09 02:55:39;;;;;;;5.60;3.95;;;;;;;6.65;56.38;102242.16;1650784;85;21063;-77
2022/05/09 02:58:06;;;;;;;6.92;3.90;;;;;;;6.61;56.41;102237.77;1670707;84;21059;-77
2022/05/09 03:00:32;;;;;;;8.83;5.00;;;;;;;6.57;56.54;102238.52;1653999;85;21495;-76
2022/05/09 03:05:46;;;;;;;7.08;4.20;;;;;;;6.48;56.59;102239.56;1648553;85;21376;-78
2022/05/09 03:08:15;;;;;;;6.42;3.70;;;;;;;6.42;56.67;102240.27;1646364;87;21117;-78
2022/05/09 03:10:42;;;;;;;7.70;4.03;;;;;;;6.42;56.84;102236.41;1656989;85;21106;-78
2022/05/09 03:13:12;;;;;;;5.42;3.95;;;;;;;6.45;56.83;102241.63;1646239;85;21070;-76
2022/05/09 03:15:47;;;;;;;4.55;3.70;;;;;;;6.45;56.84;102244.20;1650448;85;21622;-76
2022/05/09 03:18:16;;;;;;;9.38;3.85;;;;;;;6.41;56.80;102242.79;1664879;84;20983;-77
2022/05/09 03:20:43;;;;;;;10.08;4.05;;;;;;;6.38;56.95;102244.86;1659788;85;21066;-77
2022/05/09 03:23:10;;;;;;;5.33;4.05;;;;;;;6.41;57.11;102245.36;1658420;85;21030;-76
2022/05/09 03:25:39;;;;;;;5.60;3.67;;;;;;;6.41;57.13;102252.66;1678111;84;20923;-78
2022/05/09 03:28:12;;;;;;;5.83;3.70;;;;;;;6.41;57.22;102258.20;1658888;83;21074;-77
2022/05/09 03:30:40;;;;;;;4.53;3.05;;;;;;;6.41;57.24;102264.63;1645312;84;21050;-77
2022/05/09 03:33:07;;;;;;;4.05;2.77;;;;;;;6.40;57.25;102262.47;1681661;84;21023;-78
2022/05/09 03:35:34;;;;;;;7.17;2.90;;;;;;;6.38;57.28;102264.13;1668168;84;21102;-77
2022/05/09 03:38:00;;;;;;;5.70;3.12;;;;;;;6.38;57.43;102257.71;1678114;84;21035;-77
2022/05/09 03:40:26;;;;;;;5.17;3.50;;;;;;;6.41;57.49;102261.65;1679366;83;20966;-77
2022/05/09 03:42:52;;;;;;;9.57;7.23;;;;;;;6.45;57.53;102256.17;1708735;83;20946;-77
2022/05/09 03:45:19;;;;;;;8.88;5.70;;;;;;;6.46;57.62;102265.21;1676705;83;20943;-76
2022/05/09 03:47:45;;;;;;;10.13;5.40;;;;;;;6.47;57.64;102260.95;1676481;85;20883;-76
2022/05/09 03:50:13;;;;;;;6.05;4.12;;;;;;;6.50;57.70;102267.45;1681723;84;20951;-76
2022/05/09 03:52:39;;;;;;;5.53;3.98;;;;;;;6.54;57.76;102271.44;1656973;84;20959;-76
2022/05/09 03:55:06;;;;;;;5.90;3.43;;;;;;;6.55;57.78;102264.18;1669021;84;20928;-76
2022/05/09 03:57:32;;;;;;;6.58;3.72;;;;;;;6.59;57.84;102268.98;1654332;85;20967;-76
2022/05/09 04:00:08;;;;;;;6.17;3.17;;;;;;;6.67;57.85;102273.05;1658173;84;20943;-77
2022/05/09 04:02:34;;;;;;;5.75;3.30;;;;;;;6.75;57.92;102272.42;1683145;83;21436;-77
2022/05/09 04:05:00;;;;;;;7.60;3.72;;;;;;;6.89;58.04;102271.05;1667823;83;20888;-77
2022/05/09 04:07:26;;;;;;;6.50;3.23;;;;;;;7.10;58.12;102265.99;1682146;84;20878;-78
2022/05/09 04:09:52;;;;;;;5.60;3.03;;;;;;;7.25;58.09;102271.09;1675853;84;20947;-78
2022/05/09 04:12:18;;;;;;;4.87;2.90;;;;;;;7.39;58.06;102274.38;1681796;84;20915;-79
2022/05/09 04:17:37;;;;;;;5.78;3.35;;;;;;;7.53;58.13;102279.44;1678425;85;21062;-79
2022/05/09 04:20:05;;;;;;;6.70;3.60;;;;;;;7.60;58.14;102281.32;1680501;84;21034;-79
2022/05/09 04:22:31;;;;;;;5.25;2.77;;;;;;;7.67;58.13;102287.48;1672365;83;21109;-79
2022/05/09 04:24:58;;;;;;;7.62;2.65;;;;;;;7.67;58.11;102292.22;1684225;83;21055;-77
2022/05/09 04:27:24;;;;;;;4.37;2.63;;;;;;;7.71;58.17;102293.16;1670519;85;20892;-78
2022/05/09 04:29:51;;;;;;;5.22;2.20;;;;;;;7.73;58.19;102297.92;1671431;83;21108;-78
2022/05/09 04:32:19;;;;;;;5.03;2.00;;;;;;;7.74;58.16;102300.95;1666781;83;21090;-78
2022/05/09 04:34:45;;;;;;;7.27;2.70;;;;;;;7.74;58.23;102303.52;1674475;83;20989;-79
2022/05/09 04:37:11;;;;;;;5.97;2.60;;;;;;;7.72;58.23;102308.64;1668005;83;21042;-79
2022/05/09 04:39:37;;;;;;;4.20;2.03;;;;;;;7.72;58.24;102306.48;1660189;84;21010;-80
2022/05/09 04:42:05;;;;;;;4.58;2.12;;;;;;;7.73;58.29;102309.51;1672023;84;21049;-79
2022/05/09 04:44:41;;;;;;;4.47;2.25;;;;;;;7.74;58.29;102308.67;1649611;84;21340;-80
2022/05/09 04:47:07;;;;;;;8.03;2.50;;;;;;;7.77;58.31;102310.91;1675070;83;20960;-79
2022/05/09 04:49:33;;;;;;;4.37;2.35;;;;;;;7.79;58.37;102316.95;1685078;83;21066;-80
2022/05/09 04:52:07;;;;;;;4.20;2.40;;;;;;;7.79;58.32;102311.81;1659738;84;21121;-78
2022/05/09 04:54:33;;;;;;;4.85;2.10;;;;;;;7.82;58.37;102309.27;1684505;83;21429;-78
2022/05/09 04:56:59;;;;;;;6.30;1.97;;;;;;;7.84;58.36;102312.75;1673782;84;21109;-78
2022/05/09 04:59:27;;;;;;;4.40;2.15;;;;;;;7.92;58.44;102316.36;1675403;83;21126;-78
2022/05/09 05:01:53;;;;;;;5.93;2.33;;;;;;;8.03;58.40;102311.87;1677771;83;20993;-78
2022/05/09 05:04:19;;;;;;;4.90;2.27;;;;;;;8.17;58.52;102322.92;1671820;85;20928;-78
2022/05/09 05:06:45;;;;;;;3.57;2.20;;;;;;;8.35;58.57;102316.00;1684949;85;21553;-78
2022/05/09 05:09:11;;;;;;;4.55;1.82;;;;;;;8.79;58.85;102322.45;1684262;84;21087;-81
2022/05/09 05:11:37;;;;;;;5.85;2.65;;;;;;;9.32;58.86;102316.91;1641253;86;21085;-80
2022/05/09 05:14:04;;;;;;;4.53;2.42;;;;;;;9.86;58.89;102322.45;1639378;86;21107;-78
2022/05/09 05:19:14;;;;;;;6.00;2.17;;;;;;;11.11;59.06;102326.05;1678362;84;21353;-78
2022/05/09 05:21:43;;;;;;;4.58;2.33;;;;;;;11.80;59.15;102326.60;1683705;84;21078;-78
2022/05/09 05:24:10;;;;;;;4.83;2.22;;;;;;;12.42;59.04;102324.31;1654302;85;21130;-78
2022/05/09 05:26:36;;;;;;;4.00;2.20;;;;;;;13.08;59.04;102325.71;1701082;83;21070;-78
2022/05/09 05:29:02;;;;;;;6.40;1.90;;;;;;;13.55;58.76;102330.49;1710764;82;21299;-78
2022/05/09 05:31:28;;;;;;;7.67;2.22;;;;;;;13.96;58.81;102331.30;1677655;82;21117;-77
2022/05/09 05:33:55;;;;;;;3.65;2.30;;;;;;;14.43;58.57;102325.94;1705710;83;21090;-77
2022/05/09 05:36:22;;;;;;;2.58;1.90;;;;;;;14.76;58.37;102332.25;1710359;83;21110;-77
2022/05/09 05:38:51;;;;;;;3.95;1.77;;;;;;;15.12;58.41;102325.91;1690268;83;21117;-78
2022/05/09 05:41:15;;;;;;;4.47;1.80;;;;;;;15.46;58.21;102325.64;1699927;83;20904;-78
2022/05/09 05:43:41;;;;;;;3.37;1.80;;;;;;;15.73;58.15;102327.98;1692188;84;20931;-78
2022/05/09 05:46:10;;;;;;;5.10;1.67;;;;;;;16.01;58.02;102331.18;1684724;83;20887;-78
2022/05/09 05:48:36;;;;;;;8.23;2.22;;;;;;;16.34;57.82;102329.89;1685836;83;20864;-78
2022/05/09 05:51:02;;;;;;;3.13;1.80;;;;;;;16.72;57.44;102330.70;1669061;83;20886;-78
2022/05/09 05:53:28;;;;;;;3.13;1.73;;;;;;;17.09;57.42;102330.16;1664380;86;20907;-79
2022/05/09 05:55:54;;;;;;;4.00;1.67;;;;;;;17.50;57.29;102330.76;1664459;86;21202;-78
2022/05/09 05:58:23;;;;;;;3.93;1.90;;;;;;;17.88;57.15;102341.85;1664634;86;20883;-78
2022/05/09 06:00:48;;;;;;;4.22;1.90;;;;;;;18.01;56.85;102345.10;1669007;83;20879;-78
2022/05/09 06:03:15;;;;;;;6.73;2.20;;;;;;;18.04;56.79;102347.66;1692468;83;20875;-78
2022/05/09 06:05:42;;;;;;;6.37;1.85;;;;;;;18.30;56.62;102345.80;1691604;83;21326;-78
2022/05/09 06:08:08;;;;;;;4.47;1.95;;;;;;;18.41;56.16;102347.31;1674978;84;20959;-78
2022/05/09 06:10:34;;;;;;;2.60;1.60;;;;;;;18.39;55.65;102353.03;1669250;84;20955;-78
2022/05/09 06:13:05;;;;;;;2.70;1.57;;;;;;;18.11;55.01;102348.83;1664507;84;20959;-78
2022/05/09 06:15:32;;;;;;;3.87;1.87;;;;;;;17.84;54.78;102354.58;1667005;84;20899;-79
2022/05/09 06:18:01;;;;;;;3.90;2.35;;;;;;;17.64;54.71;102354.93;1676855;83;20914;-80
2022/05/09 06:20:31;;;;;;;3.58;2.20;;;;;;;17.52;54.48;102357.31;1687156;83;20943;-79
2022/05/09 06:22:59;;;;;;;3.67;2.10;;;;;;;17.45;54.13;102356.99;1664173;84;20959;-79
2022/05/09 06:25:27;;;;;;;5.15;2.00;;;;;;;17.44;54.02;102362.25;1660323;83;20936;-79
2022/05/09 06:27:54;;;;;;;3.98;1.90;;;;;;;17.45;53.68;102358.30;1674454;85;20960;-80
2022/05/09 06:30:22;;;;;;;;;;;;;;;17.39;53.27;102356.23;1678589;85;20956;-79
2022/05/09 06:32:48;;;;;;;4.92;1.87;;;;;;;17.43;52.80;102350.92;1655422;84;20130;-78
2022/05/09 06:35:20;;;;;;;2.93;1.43;;;;;;;17.57;53.13;102349.39;1649002;85;20980;-78
2022/05/09 06:37:56;;;;;;;2.33;1.77;;;;;;;17.59;52.84;102353.28;1654278;84;22163;-78
2022/05/09 06:40:24;;;;;;;3.42;1.85;;;;;;;17.68;52.79;102351.37;1659529;85;20952;-78
2022/05/09 06:42:52;;;;;;;4.75;1.87;;;;;;;17.94;52.51;102355.27;1674932;84;20963;-80
2022/05/09 06:45:19;;;;;;;3.52;1.95;;;;;;;18.05;52.21;102350.70;1673378;84;21444;-79
2022/05/09 06:47:50;;;;;;;2.58;1.70;;;;;;;18.24;52.18;102351.17;1654378;85;20988;-79
2022/05/09 06:50:19;;;;;;;4.10;1.95;;;;;;;18.46;51.94;102349.84;1648713;86;20928;-79
2022/05/09 06:52:45;;;;;;;4.33;1.90;;;;;;;18.63;51.56;102350.38;1654315;84;20924;-79
2022/05/09 06:55:12;;;;;;;4.37;1.70;;;;;;;18.63;51.30;102353.44;1670156;85;20964;-78
2022/05/09 06:57:41;;;;;;;4.58;1.77;;;;;;;18.73;51.42;102352.31;1675879;85;20978;-78
2022/05/09 07:00:14;;;;;;;4.10;2.17;;;;;;;18.95;51.34;102345.69;1666570;84;21472;-78
2022/05/09 07:02:40;;;;;;;4.20;2.00;;;;;;;19.10;50.86;102345.78;1673948;84;20933;-79
2022/05/09 07:05:11;;;;;;;2.03;1.53;;;;;;;19.21;50.78;102349.02;1651177;85;21064;-79
2022/05/09 07:07:37;;;;;;;3.42;1.92;;;;;;;19.39;50.75;102348.98;1675497;85;20971;-79
2022/05/09 07:10:05;;;;;;;3.47;2.08;;;;;;;19.57;50.04;102350.31;1676334;85;20893;-79
2022/05/09 07:12:31;;;;;;;2.60;1.72;;;;;;;19.54;49.81;102349.08;1676530;84;20971;-79
2022/05/09 07:14:57;;;;;;;6.22;2.27;;;;;;;19.62;49.81;102351.92;1654808;85;20932;-79
2022/05/09 07:17:23;;;;;;;3.60;2.17;;;;;;;19.73;49.69;102350.33;1671761;84;20902;-79
2022/05/09 07:19:49;;;;;;;7.40;4.00;;;;;;;19.86;49.51;102354.32;1675515;84;20865;-78
2022/05/09 07:22:15;;;;;;;4.13;2.97;;;;;;;19.83;49.03;102350.47;1666931;85;21661;-79
2022/05/09 07:24:41;;;;;;;5.93;2.37;;;;;;;19.83;48.86;102350.02;1649850;85;20857;-80
2022/05/09 07:27:08;;;;;;;4.40;2.40;;;;;;;19.87;48.68;102349.94;1653869;85;20992;-80
2022/05/09 07:29:34;;;;;;;4.60;1.95;;;;;;;19.96;48.73;102359.73;1664192;85;20929;-80
2022/05/09 07:32:00;;;;;;;5.35;2.30;;;;;;;20.05;48.43;102362.56;1663908;85;25194;-80
2022/05/09 07:34:28;;;;;;;3.70;1.80;;;;;;;20.10;48.45;102361.53;1675161;85;20937;-79
2022/05/09 07:36:53;;;;;;;4.37;2.63;;;;;;;20.37;48.74;102362.48;1671691;84;20900;-79
2022/05/09 07:39:20;;;;;;;4.67;2.00;;;;;;;20.88;48.61;102363.16;1672086;85;20938;-79
2022/05/09 07:41:46;;;;;;;2.70;1.90;;;;;;;21.28;47.84;102366.73;1672920;85;21426;-79
2022/05/09 07:44:12;;;;;;;4.17;1.77;;;;;;;21.49;47.10;102365.13;1673555;83;20873;-80
2022/05/09 07:46:38;;;;;;;2.03;1.70;;;;;;;21.40;46.54;102367.61;1675222;85;20933;-79
2022/05/09 07:49:04;;;;;;;10.13;2.03;;;;;;;21.07;46.42;102366.07;1675588;85;20888;-79
2022/05/09 07:51:30;;;;;;;4.00;2.08;;;;;;;20.82;45.64;102369.47;1661077;85;21322;-78
2022/05/09 07:53:56;;;;;;;2.20;1.57;;;;;;;20.41;45.99;102364.61;1665234;85;20916;-81
2022/05/09 07:56:22;;;;;;;4.33;1.70;;;;;;;20.29;46.04;102361.84;1671349;84;20924;-78
2022/05/09 07:58:48;;;;;;;2.47;1.53;;;;;;;20.12;45.79;102357.55;1671421;84;20975;-79
2022/05/09 08:01:14;;;;;;;1.77;1.47;;;;;;;20.06;45.75;102365.15;1676201;85;21515;-79
2022/05/09 08:03:42;;;;;;;2.50;2.00;;;;;;;20.10;45.54;102366.78;1666929;83;21614;-79
2022/05/09 08:06:08;;;;;;;2.17;1.30;;;;;;;20.15;45.44;102360.95;1674146;85;21866;-78
2022/05/09 08:08:40;;;;;;;3.85;1.90;;;;;;;20.20;44.93;102362.59;1675753;85;38349;-79
2022/05/09 08:11:06;;;;;;;4.70;1.52;;;;;;;20.05;44.24;102355.55;1667373;83;21384;-78
2022/05/09 08:13:34;;;;;;;4.62;1.32;;;;;;;19.79;44.09;102362.81;1668771;84;20927;-78
2022/05/09 08:16:04;;;;;;;3.02;1.45;;;;;;;19.57;43.87;102353.80;1675912;85;21404;-79
2022/05/09 08:18:31;;;;;;;2.52;1.12;;;;;;;19.38;43.71;102356.44;1655672;84;20897;-79
2022/05/09 08:20:59;;;;;;;4.67;1.57;;;;;;;19.18;43.56;102359.13;1674405;85;21510;-79
2022/05/09 08:23:27;;;;;;;1.67;1.35;;;;;;;19.09;43.29;102358.03;1676008;85;21336;-79
2022/05/09 08:25:55;;;;;;;4.37;1.50;;;;;;;19.04;43.10;102362.52;1669527;84;20987;-79
2022/05/09 08:28:22;;;;;;;1.57;1.20;;;;;;;19.04;42.96;102365.59;1683349;85;21329;-78
2022/05/09 08:30:49;;;;;;;3.67;1.50;;;;;;;19.06;43.05;102359.87;1684202;85;21590;-78
2022/05/09 08:33:22;;;;;;;6.35;1.47;;;;;;;19.20;42.95;102365.65;1660048;85;21363;-80
2022/05/09 08:35:51;;;;;;;1.75;1.20;;;;;;;19.31;42.64;102359.66;1697794;83;21093;-78
2022/05/09 08:38:19;;;;;;;3.55;1.15;;;;;;;19.41;42.35;102365.55;1701685;84;21491;-77
2022/05/09 08:41:14;;;;;;;2.27;1.05;;;;;;;19.33;42.39;102367.05;1691173;84;21354;-78
2022/05/09 08:44:23;;;;;;;2.50;1.15;;;;;;;19.37;42.25;102366.07;1700768;83;21341;-78
2022/05/09 08:46:58;;;;;;;2.42;1.30;;;;;;;19.52;42.15;102362.24;1646921;84;20904;-78
2022/05/09 08:49:57;;;;;;;2.17;0.93;;;;;;;19.43;41.61;102365.06;1695507;84;21541;-80
2022/05/09 08:52:42;;;;;;;1.72;1.52;;;;;;;19.29;41.45;102356.22;1689809;83;21401;-79
2022/05/09 08:55:09;;;;;;;1.70;1.05;;;;;;;19.28;41.47;102347.94;1688081;83;21786;-79
2022/05/09 08:57:50;;;;;;;3.85;2.33;;;;;;;19.31;41.51;102351.80;1699230;83;20936;-79
2022/05/09 09:00:20;;;;;;;1.22;1.10;;;;;;;19.45;41.47;102354.08;1696251;83;21798;-78
2022/05/09 09:03:19;;;;;;;1.52;1.10;;;;;;;19.56;41.15;102354.70;1682118;84;21419;-78
2022/05/09 09:05:47;;;;;;;1.62;0.95;;;;;;;19.46;40.79;102359.28;1700271;83;21599;-79
2022/05/09 09:08:50;;;;;;;1.40;1.00;;;;;;;19.35;40.71;102357.83;1697950;82;21427;-79
2022/05/09 09:11:33;;;;;;;1.95;1.30;;;;;;;19.26;39.99;102362.84;1692268;82;20877;-78
2022/05/09 09:14:26;;;;;;;1.45;1.00;;;;;;;19.01;40.26;102358.66;1700867;82;20944;-80
2022/05/09 09:17:24;;;;;;;2.35;1.17;;;;;;;18.91;40.11;102360.22;1694419;82;21787;-78
2022/05/09 09:19:57;;;;;;;1.65;1.30;;;;;;;18.70;39.94;102360.28;1690103;83;20905;-78
2022/05/09 09:22:55;;;;;;;2.55;1.17;;;;;;;18.59;39.93;102359.61;1692615;83;21015;-79
2022/05/09 09:25:35;;;;;;;2.50;1.00;;;;;;;18.44;39.14;102362.11;1692753;83;21062;-78
2022/05/09 09:28:19;;;;;;;5.25;1.17;;;;;;;18.23;39.24;102363.84;1703446;80;21107;-78
2022/05/09 09:30:46;;;;;;;2.98;1.00;;;;;;;18.15;39.28;102368.81;1690038;83;21126;-79
2022/05/09 09:33:19;;;;;;;2.55;0.80;;;;;;;18.05;38.95;102365.09;1684165;83;22158;-79
2022/05/09 09:35:56;;;;;;;2.87;0.90;;;;;;;17.85;38.96;102349.77;1693137;83;21179;-79
2022/05/09 09:38:54;;;;;;;2.25;1.10;;;;;;;17.78;38.79;102350.76;1699277;84;21492;-79
2022/05/09 09:41:31;;;;;;;2.22;0.90;;;;;;;17.78;38.25;102347.70;1703481;82;22160;-80
2022/05/09 09:44:15;;;;;;;2.27;1.00;;;;;;;17.69;38.71;102345.25;1710108;82;21040;-79
2022/05/09 09:47:25;;;;;;;3.55;1.25;;;;;;;17.70;38.44;102346.97;1693224;84;21086;-80
2022/05/09 09:50:15;;;;;;;2.10;0.98;;;;;;;17.64;38.41;102347.08;1703440;84;21114;-80
2022/05/09 09:52:55;;;;;;;2.00;1.10;;;;;;;17.58;38.17;102341.95;1695808;83;21748;-80
2022/05/09 09:55:31;;;;;;;2.50;1.50;;;;;;;17.51;38.07;102344.26;1698422;84;21048;-78
2022/05/09 09:58:20;;;;;;;1.52;0.88;;;;;;;17.41;37.69;102340.06;1694904;84;21040;-78
2022/05/09 10:01:13;;;;;;;3.60;1.15;;;;;;;17.34;37.70;102344.53;1694228;82;21480;-78
2022/05/09 10:03:44;;;;;;;2.30;0.90;;;;;;;17.32;37.82;102341.09;1702009;83;21775;-78
2022/05/09 10:06:21;;;;;;;2.08;0.75;;;;;;;17.39;37.78;102331.38;1697310;84;20936;-78
2022/05/09 10:08:59;;;;;;;1.70;1.02;;;;;;;17.44;37.73;102327.80;1685083;83;20909;-80
2022/05/09 10:11:29;;;;;;;2.45;1.20;;;;;;;17.53;37.78;102332.88;1696816;84;20932;-78
2022/05/09 10:14:02;;;;;;;6.45;1.02;;;;;;;17.44;37.48;102340.88;1704019;83;21444;-78
2022/05/09 10:16:45;;;;;;;14.20;1.60;;;;;;;17.37;37.37;102343.18;1704534;83;20909;-79
2022/05/09 10:19:13;;;;;;;3.10;1.00;;;;;;;17.35;37.26;102335.80;1699450;82;21485;-78
2022/05/09 10:24:48;;;;;;;1.92;0.95;;;;;;;17.41;37.39;102323.94;1705710;83;20952;-79
2022/05/09 10:27:28;;;;;;;1.67;0.90;;;;;;;17.36;37.10;102320.98;1700494;82;20964;-78
2022/05/09 10:30:05;;;;;;;3.12;1.30;;;;;;;17.26;37.13;102324.63;1699796;84;20881;-78
2022/05/09 10:32:52;;;;;;;1.37;0.82;;;;;;;17.29;37.13;102325.89;1699034;83;21262;-79
2022/05/09 10:35:23;;;;;;;2.83;1.02;;;;;;;17.27;36.96;102312.84;1699641;83;20941;-78
2022/05/09 10:38:09;;;;;;;1.62;0.95;;;;;;;17.23;36.91;102316.39;1695573;83;20932;-78
2022/05/09 10:40:50;;;;;;;8.85;0.75;;;;;;;17.25;36.90;102311.14;1698681;82;20950;-78
2022/05/09 10:43:37;;;;;;;1.77;1.15;;;;;;;17.28;36.89;102313.70;1695762;83;20913;-79
2022/05/09 10:46:10;;;;;;;3.12;1.00;;;;;;;17.28;36.82;102304.11;1699173;83;21149;-78
2022/05/09 10:48:52;;;;;;;2.42;1.30;;;;;;;17.31;36.77;102307.11;1694902;83;21101;-80
2022/05/09 10:51:24;;;;;;;4.03;1.20;;;;;;;17.34;36.66;102300.53;1691612;84;21023;-79
2022/05/09 10:53:58;;;;;;;3.72;1.05;;;;;;;17.35;36.71;102299.64;1696610;83;21153;-79
2022/05/09 10:56:49;;;;;;;2.22;1.20;;;;;;;17.42;36.65;102302.13;1699491;83;21086;-79
2022/05/09 10:59:28;;;;;;;3.47;1.20;;;;;;;17.50;36.66;102299.38;1701245;84;21591;-78
2022/05/09 11:02:09;;;;;;;1.60;1.20;;;;;;;17.52;36.65;102287.99;1701526;84;21111;-78
2022/05/09 11:04:37;;;;;;;2.02;1.10;;;;;;;17.52;36.54;102291.92;1701306;83;21031;-78
2022/05/09 11:07:52;;;;;;;10.15;1.20;;;;;;;17.57;36.67;102283.98;1701507;83;21134;-78
2022/05/09 11:10:41;;;;;;;;;;;;;;;17.64;36.45;102275.14;1697660;84;21087;-79
2022/05/09 11:13:30;;;;;;;3.52;1.22;;;;;;;17.69;36.36;102275.05;1700337;83;21086;-78
2022/05/09 11:16:10;;;;;;;2.47;1.47;;;;;;;17.72;36.37;102270.63;1690759;84;21096;-78
2022/05/09 11:19:04;;;;;;;1.50;1.15;;;;;;;17.73;36.46;102272.80;1694539;82;21128;-80
2022/05/09 11:21:42;;;;;;;3.12;1.20;;;;;;;17.72;36.40;102254.06;1694578;84;21138;-80
2022/05/09 11:24:16;;;;;;;1.67;1.02;;;;;;;17.78;36.44;102253.50;1606981;87;21129;-79
2022/05/09 11:26:56;;;;;;;4.03;1.30;;;;;;;17.84;36.19;102252.52;1592787;88;21168;-79
2022/05/09 11:29:49;;;;;;;2.40;1.20;;;;;;;17.85;36.26;102255.10;1601622;86;21048;-76
2022/05/09 11:32:41;;;;;;;2.15;1.15;;;;;;;17.90;35.90;102251.09;1592400;88;21130;-77
2022/05/09 11:35:33;;;;;;;2.20;1.20;;;;;;;17.92;36.12;102247.13;1586443;88;21024;-78
2022/05/09 11:38:28;;;;;;;1.30;1.00;;;;;;;17.86;36.06;102241.13;1590669;88;21156;-78
2022/05/09 11:41:19;;;;;;;2.77;1.05;;;;;;;17.86;36.01;102229.80;1583684;88;21148;-80
2022/05/09 11:44:06;;;;;;;1.70;0.88;;;;;;;17.95;36.00;102236.15;1586939;88;21222;-77
2022/05/09 11:47:00;;;;;;;1.32;0.80;;;;;;;18.04;35.89;102239.89;1583258;88;21112;-80
2022/05/09 11:49:48;;;;;;;2.47;0.95;;;;;;;18.08;35.87;102236.76;1591446;88;21307;-80
2022/05/09 11:52:28;;;;;;;1.22;0.93;;;;;;;18.15;35.84;102234.42;1589386;88;21116;-77
2022/05/09 11:55:08;;;;;;;1.87;1.15;;;;;;;18.20;35.75;102240.39;1584147;88;21097;-77
2022/05/09 11:57:39;;;;;;;2.10;1.10;;;;;;;18.18;35.67;102235.22;1582113;88;21696;-77
2022/05/09 12:00:15;;;;;;;1.27;1.12;;;;;;;18.15;35.74;102230.50;1598688;88;21009;-78
2022/05/09 12:03:00;;;;;;;4.72;1.15;;;;;;;18.16;35.71;102231.77;1662706;85;20940;-80
2022/05/09 12:05:31;;;;;;;1.90;1.12;;;;;;;18.17;35.50;102237.42;1701707;84;20914;-78